createdAt,value
2018-12-05T00:01:54.367Z,6.20
2018-12-05T00:04:22.280Z,6.55
2018-12-05T00:06:50.236Z,6.93
2018-12-05T00:09:18.129Z,8.00
2018-12-05T00:11:46.118Z,8.03
2018-12-05T00:14:14.068Z,6.10
2018-12-05T00:16:41.965Z,5.75
2018-12-05T00:19:09.905Z,5.25
2018-12-05T00:21:37.778Z,5.95
2018-12-05T00:24:05.793Z,6.17
2018-12-05T00:26:33.790Z,5.70
2018-12-05T00:29:01.701Z,5.22
2018-12-05T00:31:29.718Z,5.45
2018-12-05T00:33:57.683Z,6.37
2018-12-05T00:36:25.623Z,5.90
2018-12-05T00:38:53.580Z,6.20
2018-12-05T00:41:21.523Z,8.95
2018-12-05T00:43:49.637Z,7.22
2018-12-05T00:46:17.593Z,7.50
2018-12-05T00:48:45.534Z,6.12
2018-12-05T00:51:13.527Z,6.55
2018-12-05T00:53:41.403Z,6.23
2018-12-05T00:56:09.328Z,6.50
2018-12-05T00:58:37.379Z,5.97
2018-12-05T01:01:05.321Z,5.95
2018-12-05T01:03:33.212Z,5.47
2018-12-05T01:06:01.368Z,6.60
2018-12-05T01:08:29.226Z,6.45
2018-12-05T01:10:57.230Z,5.27
2018-12-05T01:13:25.328Z,5.70
2018-12-05T01:15:53.217Z,5.37
2018-12-05T01:18:21.172Z,6.53
2018-12-05T01:20:49.102Z,5.47
2018-12-05T01:23:17.051Z,5.20
2018-12-05T01:25:44.889Z,5.40
2018-12-05T01:28:12.827Z,5.58
2018-12-05T01:30:40.761Z,5.65
2018-12-05T01:33:08.680Z,4.85
2018-12-05T01:35:37.124Z,5.75
2018-12-05T01:38:05.036Z,5.62
2018-12-05T01:40:33.087Z,5.30
2018-12-05T01:43:01.012Z,5.25
2018-12-05T01:45:28.881Z,5.33
2018-12-05T01:47:56.868Z,5.78
2018-12-05T01:50:24.813Z,5.00
2018-12-05T01:52:52.758Z,9.28
2018-12-05T01:55:20.873Z,6.45
2018-12-05T01:57:48.893Z,5.72
2018-12-05T02:00:16.873Z,5.55
2018-12-05T02:02:44.788Z,5.78
2018-12-05T02:05:12.882Z,5.87
2018-12-05T02:07:40.817Z,5.60
2018-12-05T02:10:08.867Z,5.85
2018-12-05T02:12:36.826Z,6.15
2018-12-05T02:15:05.317Z,6.28
2018-12-05T02:17:33.256Z,5.87
2018-12-05T02:20:01.161Z,6.58
2018-12-05T02:22:29.059Z,6.53
2018-12-05T02:24:57.003Z,6.40
2018-12-05T02:27:24.858Z,6.03
2018-12-05T02:29:57.855Z,6.12
2018-12-05T02:32:26.044Z,6.28
2018-12-05T02:34:53.942Z,6.05
2018-12-05T02:37:21.842Z,6.37
2018-12-05T02:39:49.692Z,7.37
2018-12-05T02:42:17.540Z,6.42
2018-12-05T02:44:45.373Z,6.35
2018-12-05T02:47:13.416Z,7.45
2018-12-05T02:49:41.372Z,6.90
2018-12-05T02:52:09.238Z,7.28
2018-12-05T02:54:37.188Z,8.13
2018-12-05T02:57:05.043Z,6.87
2018-12-05T02:59:32.880Z,6.70
2018-12-05T03:02:00.875Z,6.33
2018-12-05T03:04:28.813Z,6.75
2018-12-05T03:06:56.723Z,6.83
2018-12-05T03:09:24.563Z,6.12
2018-12-05T03:11:52.431Z,6.87
2018-12-05T03:14:20.349Z,7.60
2018-12-05T03:16:48.218Z,6.80
2018-12-05T03:19:16.081Z,8.13
2018-12-05T03:21:44.099Z,7.75
2018-12-05T03:24:11.938Z,7.60
2018-12-05T03:26:39.869Z,6.22
2018-12-05T03:29:07.811Z,7.22
2018-12-05T03:31:35.788Z,7.85
2018-12-05T03:34:03.797Z,6.22
2018-12-05T03:36:31.677Z,6.45
2018-12-05T03:38:59.672Z,7.35
2018-12-05T03:41:27.679Z,8.70
2018-12-05T03:43:55.567Z,7.20
2018-12-05T03:46:23.466Z,7.85
2018-12-05T03:48:51.421Z,6.95
2018-12-05T03:51:19.325Z,7.80
2018-12-05T03:53:47.232Z,8.08
2018-12-05T03:56:15.295Z,7.60
2018-12-05T03:58:43.139Z,6.80
2018-12-05T04:01:11.033Z,6.95
2018-12-05T04:03:38.966Z,6.97
2018-12-05T04:06:06.804Z,7.65
2018-12-05T04:08:34.698Z,8.23
2018-12-05T04:11:02.531Z,7.80
2018-12-05T04:13:30.417Z,8.30
2018-12-05T04:15:58.271Z,8.23
2018-12-05T04:18:26.162Z,8.98
2018-12-05T04:20:54.102Z,8.65
2018-12-05T04:23:21.959Z,8.78
2018-12-05T04:25:49.827Z,10.43
2018-12-05T04:28:17.717Z,9.88
2018-12-05T04:30:45.643Z,8.23
2018-12-05T04:33:13.473Z,10.18
2018-12-05T04:35:41.348Z,8.60
2018-12-05T04:38:09.262Z,9.43
2018-12-05T04:40:37.104Z,8.05
2018-12-05T04:43:04.988Z,8.15
2018-12-05T04:45:32.882Z,8.85
2018-12-05T04:48:00.873Z,10.13
2018-12-05T04:50:28.814Z,7.40
2018-12-05T04:52:56.683Z,7.87
2018-12-05T04:55:24.495Z,8.83
2018-12-05T04:57:52.481Z,8.55
2018-12-05T05:00:20.362Z,8.30
2018-12-05T05:02:48.283Z,8.33
2018-12-05T05:05:16.384Z,7.28
2018-12-05T05:07:44.246Z,8.75
2018-12-05T05:10:15.878Z,9.50
2018-12-05T05:12:44.544Z,9.65
2018-12-05T05:15:12.588Z,9.15
2018-12-05T05:17:40.461Z,8.35
2018-12-05T05:20:08.531Z,8.68
2018-12-05T05:22:36.338Z,8.60
2018-12-05T05:25:04.318Z,7.90
2018-12-05T05:27:32.215Z,9.30
2018-12-05T05:30:00.067Z,9.70
2018-12-05T05:32:27.931Z,10.05
2018-12-05T05:34:55.782Z,10.58
2018-12-05T05:37:23.646Z,9.93
2018-12-05T05:39:51.511Z,9.78
2018-12-05T05:42:19.428Z,11.68
2018-12-05T05:44:47.267Z,11.93
2018-12-05T05:47:15.113Z,11.38
2018-12-05T05:49:43.064Z,9.60
2018-12-05T05:52:10.952Z,10.15
2018-12-05T05:54:38.840Z,10.60
2018-12-05T05:57:06.716Z,10.68
2018-12-05T05:59:34.533Z,9.10
2018-12-05T06:02:02.405Z,9.08
2018-12-05T06:04:30.378Z,11.15
2018-12-05T06:06:58.244Z,10.10
2018-12-05T06:09:26.092Z,9.28
2018-12-05T06:11:53.951Z,11.43
2018-12-05T06:14:21.810Z,15.35
2018-12-05T06:16:49.631Z,13.70
2018-12-05T06:19:17.484Z,10.88
2018-12-05T06:21:45.386Z,11.60
2018-12-05T06:24:13.201Z,9.20
2018-12-05T06:26:41.215Z,10.32
2018-12-05T06:29:09.098Z,11.48
2018-12-05T06:31:36.942Z,12.03
2018-12-05T06:34:04.944Z,11.20
2018-12-05T06:36:32.820Z,13.60
2018-12-05T06:39:00.763Z,13.58
2018-12-05T06:41:28.641Z,13.60
2018-12-05T06:43:56.600Z,13.70
2018-12-05T06:46:24.431Z,11.73
2018-12-05T06:48:52.324Z,9.50
2018-12-05T06:51:20.273Z,11.15
2018-12-05T06:53:48.116Z,10.20
2018-12-05T06:56:16.034Z,13.93
2018-12-05T06:58:43.903Z,11.35
2018-12-05T07:01:11.787Z,12.58
2018-12-05T07:03:39.628Z,14.98
2018-12-05T07:06:07.599Z,12.43
2018-12-05T07:08:35.480Z,14.65
2018-12-05T07:11:03.354Z,12.75
2018-12-05T07:13:31.249Z,12.45
2018-12-05T07:15:59.102Z,12.60
2018-12-05T07:18:26.976Z,15.60
2018-12-05T07:20:54.807Z,13.28
2018-12-05T07:23:22.714Z,12.55
2018-12-05T07:25:50.602Z,12.47
2018-12-05T07:28:18.509Z,15.48
2018-12-05T07:30:46.437Z,12.40
2018-12-05T07:33:14.640Z,12.33
2018-12-05T07:35:42.524Z,13.10
2018-12-05T07:38:10.395Z,10.68
2018-12-05T07:40:38.327Z,12.58
2018-12-05T07:43:06.144Z,10.80
2018-12-05T07:45:34.090Z,11.00
2018-12-05T07:48:01.939Z,11.43
2018-12-05T07:50:29.826Z,12.37
2018-12-05T07:52:57.771Z,11.03
2018-12-05T07:55:25.637Z,12.15
2018-12-05T07:57:53.495Z,10.50
2018-12-05T08:00:21.377Z,11.73
2018-12-05T08:02:49.259Z,11.35
2018-12-05T08:05:17.198Z,10.78
2018-12-05T08:07:45.104Z,10.13
2018-12-05T08:10:13.138Z,11.40
2018-12-05T08:12:40.981Z,10.75
2018-12-05T08:15:09.364Z,8.90
2018-12-05T08:17:37.246Z,10.63
2018-12-05T08:20:05.608Z,10.30
2018-12-05T08:22:33.469Z,10.40
2018-12-05T08:25:01.406Z,10.28
2018-12-05T08:27:29.276Z,9.18
2018-12-05T08:29:57.247Z,10.72
2018-12-05T08:32:25.132Z,9.83
2018-12-05T08:34:52.976Z,11.10
2018-12-05T08:37:20.864Z,13.93
2018-12-05T08:39:48.755Z,11.40
2018-12-05T08:42:16.723Z,10.75
2018-12-05T08:44:44.537Z,13.08
2018-12-05T08:47:12.408Z,11.60
2018-12-05T08:49:40.314Z,10.00
2018-12-05T08:52:08.202Z,9.80
2018-12-05T08:54:36.210Z,9.93
2018-12-05T08:57:04.074Z,9.90
2018-12-05T08:59:31.981Z,11.10
2018-12-05T09:01:59.841Z,8.85
2018-12-05T09:04:27.700Z,8.65
2018-12-05T09:06:55.628Z,8.85
2018-12-05T09:09:23.508Z,9.00
2018-12-05T09:11:51.786Z,8.20
2018-12-05T09:14:19.706Z,7.77
2018-12-05T09:16:47.588Z,8.10
2018-12-05T09:19:15.456Z,7.20
2018-12-05T09:21:43.291Z,7.17
2018-12-05T09:24:11.096Z,7.30
2018-12-05T09:26:39.107Z,6.53
2018-12-05T09:29:07.012Z,7.23
2018-12-05T09:31:34.890Z,6.27
2018-12-05T09:34:02.892Z,6.70
2018-12-05T09:36:30.755Z,6.80
2018-12-05T09:38:58.604Z,6.80
2018-12-05T09:41:26.519Z,5.47
2018-12-05T09:43:54.447Z,6.27
2018-12-05T09:46:22.392Z,6.47
2018-12-05T09:48:50.266Z,6.77
2018-12-05T09:51:18.262Z,5.73
2018-12-05T09:53:46.134Z,6.07
2018-12-05T09:56:14.004Z,6.10
2018-12-05T09:58:41.846Z,6.60
2018-12-05T10:01:09.709Z,6.03
2018-12-05T10:03:37.624Z,5.97
2018-12-05T10:06:05.464Z,5.87
2018-12-05T10:08:33.416Z,6.30
2018-12-05T10:11:01.361Z,5.70
2018-12-05T10:13:29.221Z,5.37
2018-12-05T10:15:57.046Z,5.37
2018-12-05T10:18:24.923Z,5.30
2018-12-05T10:20:55.938Z,4.60
2018-12-05T10:23:22.662Z,5.27
2018-12-05T10:25:50.592Z,5.17
2018-12-05T10:28:18.420Z,5.00
2018-12-05T10:30:46.270Z,4.97
2018-12-05T10:33:14.146Z,4.37
2018-12-05T10:35:42.001Z,4.50
2018-12-05T10:38:09.862Z,4.77
2018-12-05T10:40:37.722Z,5.03
2018-12-05T10:43:05.563Z,4.53
2018-12-05T10:45:33.544Z,4.57
2018-12-05T10:48:01.400Z,5.57
2018-12-05T10:50:29.210Z,4.53
2018-12-05T10:52:57.267Z,4.47
2018-12-05T10:55:25.151Z,3.77
2018-12-05T10:57:53.066Z,4.23
2018-12-05T11:00:25.557Z,4.10
2018-12-05T11:02:58.900Z,4.47
2018-12-05T11:05:32.440Z,4.13
2018-12-05T11:08:06.015Z,4.40
2018-12-05T11:10:39.529Z,3.87
2018-12-05T11:13:13.058Z,4.13
2018-12-05T11:15:46.581Z,4.23
2018-12-05T11:18:19.921Z,3.87
2018-12-05T11:20:53.437Z,4.50
2018-12-05T11:23:26.992Z,4.67
2018-12-05T11:25:55.637Z,4.00
2018-12-05T11:28:23.522Z,4.53
2018-12-05T11:30:51.371Z,4.60
2018-12-05T11:33:19.247Z,4.70
2018-12-05T11:35:47.138Z,4.77
2018-12-05T11:38:15.038Z,4.33
2018-12-05T11:40:42.908Z,4.03
2018-12-05T11:43:10.735Z,4.33
2018-12-05T11:45:38.626Z,4.00
2018-12-05T11:48:06.500Z,4.10
2018-12-05T11:50:34.348Z,4.13
2018-12-05T11:53:02.279Z,4.23
2018-12-05T11:55:30.113Z,3.70
2018-12-05T11:57:58.044Z,4.27
2018-12-05T12:00:26.019Z,5.00
2018-12-05T12:02:54.003Z,4.60
2018-12-05T12:05:22.130Z,3.63
2018-12-05T12:07:49.992Z,4.07
2018-12-05T12:10:20.029Z,4.33
2018-12-05T12:12:53.393Z,3.73
2018-12-05T12:15:21.729Z,3.63
2018-12-05T12:17:49.783Z,4.60
2018-12-05T12:20:17.653Z,4.10
2018-12-05T12:22:45.580Z,3.73
2018-12-05T12:25:13.433Z,4.10
2018-12-05T12:27:41.251Z,3.67
2018-12-05T12:30:15.711Z,3.83
2018-12-05T12:32:39.047Z,3.97
2018-12-05T12:35:07.088Z,3.70
2018-12-05T12:37:34.953Z,3.93
2018-12-05T12:40:03.042Z,3.67
2018-12-05T12:42:30.859Z,3.63
2018-12-05T12:44:58.703Z,3.00
2018-12-05T12:47:26.593Z,4.00
2018-12-05T12:49:54.447Z,4.10
2018-12-05T12:52:22.308Z,3.43
2018-12-05T12:54:50.288Z,3.17
2018-12-05T12:57:18.111Z,3.50
2018-12-05T12:59:45.943Z,3.67
2018-12-05T13:02:13.859Z,3.27
2018-12-05T13:04:41.727Z,3.93
2018-12-05T13:07:09.596Z,3.20
2018-12-05T13:09:37.443Z,4.73
2018-12-05T13:12:05.240Z,3.13
2018-12-05T13:14:33.085Z,3.03
2018-12-05T13:17:00.965Z,3.33
2018-12-05T13:19:28.869Z,3.23
2018-12-05T13:21:56.691Z,3.63
2018-12-05T13:24:24.529Z,3.40
2018-12-05T13:26:52.403Z,3.07
2018-12-05T13:29:20.278Z,2.80
2018-12-05T13:31:48.140Z,3.30
2018-12-05T13:34:15.972Z,2.90
2018-12-05T13:36:43.820Z,3.27
2018-12-05T13:39:11.802Z,3.77
2018-12-05T13:41:39.765Z,3.37
2018-12-05T13:44:07.536Z,2.90
2018-12-05T13:46:35.363Z,2.83
2018-12-05T13:49:03.193Z,3.10
2018-12-05T13:51:31.188Z,3.27
2018-12-05T13:53:59.023Z,2.93
2018-12-05T13:56:27.076Z,2.77
2018-12-05T13:58:54.897Z,2.87
2018-12-05T14:01:22.799Z,2.93
2018-12-05T14:03:50.707Z,3.23
2018-12-05T14:06:18.555Z,2.83
2018-12-05T14:08:46.412Z,2.90
2018-12-05T14:11:14.290Z,3.23
2018-12-05T14:13:42.171Z,3.90
2018-12-05T14:16:10.039Z,3.03
2018-12-05T14:18:37.870Z,3.60
2018-12-05T14:21:05.771Z,2.80
2018-12-05T14:23:33.585Z,3.00
2018-12-05T14:26:01.483Z,3.33
2018-12-05T14:28:29.318Z,4.03
2018-12-05T14:30:57.200Z,4.00
2018-12-05T14:33:25.083Z,3.20
2018-12-05T14:35:52.947Z,4.07
2018-12-05T14:38:20.815Z,4.30
2018-12-05T14:40:48.637Z,3.90
2018-12-05T14:43:16.515Z,2.93
2018-12-05T14:45:44.473Z,2.70
2018-12-05T14:48:12.387Z,3.00
2018-12-05T14:50:40.309Z,2.60
2018-12-05T14:53:08.163Z,3.37
2018-12-05T14:55:36.194Z,3.00
2018-12-05T14:58:04.038Z,2.20
2018-12-05T15:00:31.915Z,2.80
2018-12-05T15:02:59.787Z,2.70
2018-12-05T15:05:27.629Z,2.60
2018-12-05T15:07:55.464Z,3.10
2018-12-05T15:10:23.304Z,2.90
2018-12-05T15:12:51.128Z,2.77
2018-12-05T15:15:19.057Z,2.60
2018-12-05T15:17:46.895Z,2.97
2018-12-05T15:20:14.806Z,3.23
2018-12-05T15:22:42.629Z,2.80
2018-12-05T15:25:10.741Z,2.57
2018-12-05T15:27:38.604Z,3.27
2018-12-05T15:30:06.635Z,4.43
2018-12-05T15:32:34.447Z,4.70
2018-12-05T15:35:02.687Z,4.33
2018-12-05T15:37:31.460Z,2.97
2018-12-05T15:39:59.331Z,3.27
2018-12-05T15:42:36.821Z,3.90
2018-12-05T15:45:06.415Z,3.67
2018-12-05T15:47:34.873Z,3.73
2018-12-05T15:50:02.781Z,2.73
2018-12-05T15:52:30.678Z,3.07
2018-12-05T15:54:58.648Z,2.80
2018-12-05T15:57:26.528Z,2.77
2018-12-05T15:59:54.352Z,2.23
2018-12-05T16:02:22.244Z,2.53
2018-12-05T16:04:50.105Z,2.83
2018-12-05T16:07:18.043Z,2.70
2018-12-05T16:09:45.925Z,3.23
2018-12-05T16:12:13.871Z,3.23
2018-12-05T16:14:41.737Z,3.80
2018-12-05T16:17:09.563Z,3.90
2018-12-05T16:19:37.441Z,2.97
2018-12-05T16:22:05.340Z,2.90
2018-12-05T16:24:33.204Z,3.23
2018-12-05T16:27:01.128Z,3.00
2018-12-05T16:29:40.705Z,3.40
2018-12-05T16:32:08.559Z,2.97
2018-12-05T16:34:36.519Z,2.77
2018-12-05T16:37:04.447Z,3.20
2018-12-05T16:39:32.286Z,3.10
2018-12-05T16:42:00.131Z,3.90
2018-12-05T16:44:28.124Z,3.33
2018-12-05T16:46:55.963Z,3.67
2018-12-05T16:49:23.838Z,3.30
2018-12-05T16:51:51.707Z,3.80
2018-12-05T16:54:19.661Z,2.73
2018-12-05T16:56:47.527Z,3.20
2018-12-05T16:59:15.403Z,3.20
2018-12-05T17:01:43.327Z,2.97
2018-12-05T17:04:11.239Z,2.73
2018-12-05T17:06:39.144Z,2.77
2018-12-05T17:09:07.581Z,3.17
2018-12-05T17:11:35.547Z,2.90
2018-12-05T17:14:03.678Z,3.17
2018-12-05T17:16:31.529Z,3.77
2018-12-05T17:18:59.450Z,3.57
2018-12-05T17:21:27.381Z,3.23
2018-12-05T17:23:55.281Z,3.80
2018-12-05T17:26:23.096Z,3.10
2018-12-05T17:28:51.055Z,3.60
2018-12-05T17:31:18.928Z,4.00
2018-12-05T17:33:46.748Z,3.47
2018-12-05T17:36:14.624Z,3.77
2018-12-05T17:38:42.530Z,2.87
2018-12-05T17:41:10.499Z,3.17
2018-12-05T17:43:38.359Z,4.90
2018-12-05T17:46:06.222Z,3.33
2018-12-05T17:48:34.113Z,3.60
2018-12-05T17:51:02.043Z,3.30
2018-12-05T17:53:29.916Z,3.37
2018-12-05T17:55:57.816Z,3.40
2018-12-05T17:58:25.722Z,3.27
2018-12-05T18:00:53.577Z,3.60
2018-12-05T18:03:21.443Z,3.33
2018-12-05T18:05:49.318Z,3.63
2018-12-05T18:08:17.262Z,3.07
2018-12-05T18:10:45.390Z,2.93
2018-12-05T18:13:17.070Z,3.37
2018-12-05T18:15:45.577Z,3.93
2018-12-05T18:18:13.607Z,4.30
2018-12-05T18:20:41.500Z,4.03
2018-12-05T18:23:09.378Z,4.40
2018-12-05T18:25:37.266Z,4.47
2018-12-05T18:28:05.310Z,4.97
2018-12-05T18:30:33.212Z,4.87
2018-12-05T18:33:01.063Z,5.20
2018-12-05T18:35:28.895Z,5.63
2018-12-05T18:37:56.768Z,6.67
2018-12-05T18:40:24.651Z,5.40
2018-12-05T18:42:52.523Z,6.77
2018-12-05T18:45:20.552Z,6.00
2018-12-05T18:47:48.429Z,5.07
2018-12-05T18:50:16.319Z,4.83
2018-12-05T18:52:44.215Z,4.50
2018-12-05T18:55:12.267Z,4.67
2018-12-05T18:57:40.198Z,4.83
2018-12-05T19:00:09.970Z,6.27
2018-12-05T19:02:37.831Z,6.77
2018-12-05T19:05:06.495Z,5.43
2018-12-05T19:07:35.224Z,4.50
2018-12-05T19:10:03.901Z,8.77
2018-12-05T19:12:31.797Z,5.17
2018-12-05T19:14:59.646Z,5.43
2018-12-05T19:17:27.535Z,5.43
2018-12-05T19:19:55.422Z,6.43
2018-12-05T19:22:23.288Z,5.80
2018-12-05T19:24:51.384Z,5.03
2018-12-05T19:27:19.330Z,8.30
2018-12-05T19:29:47.305Z,5.90
2018-12-05T19:32:15.155Z,4.30
2018-12-05T19:34:43.011Z,4.73
2018-12-05T19:37:10.875Z,5.03
2018-12-05T19:39:38.773Z,4.50
2018-12-05T19:42:06.659Z,4.63
2018-12-05T19:44:34.541Z,4.23
2018-12-05T19:47:02.438Z,5.10
2018-12-05T19:49:30.368Z,5.57
2018-12-05T19:51:58.264Z,4.70
2018-12-05T19:54:26.139Z,4.83
2018-12-05T19:56:54.105Z,5.33
2018-12-05T19:59:22.083Z,5.17
2018-12-05T20:01:50.059Z,5.40
2018-12-05T20:04:17.909Z,6.53
2018-12-05T20:06:45.914Z,5.37
2018-12-05T20:09:13.818Z,4.80
2018-12-05T20:11:41.782Z,5.73
2018-12-05T20:14:14.306Z,4.77
2018-12-05T20:16:42.304Z,5.23
2018-12-05T20:19:10.260Z,5.33
2018-12-05T20:21:38.318Z,5.57
2018-12-05T20:24:06.180Z,5.47
2018-12-05T20:26:34.048Z,6.03
2018-12-05T20:29:02.069Z,5.60
2018-12-05T20:31:29.964Z,5.93
2018-12-05T20:33:57.826Z,5.00
2018-12-05T20:36:32.382Z,6.73
2018-12-05T20:39:00.303Z,6.40
2018-12-05T20:41:32.310Z,6.53
2018-12-05T20:43:58.088Z,5.90
2018-12-05T20:46:26.049Z,6.60
2018-12-05T20:48:54.011Z,6.23
2018-12-05T20:51:21.908Z,6.80
2018-12-05T20:53:49.898Z,6.50
2018-12-05T20:56:17.770Z,6.63
2018-12-05T20:58:45.781Z,5.90
2018-12-05T21:01:13.660Z,6.30
2018-12-05T21:03:41.463Z,7.57
2018-12-05T21:06:09.467Z,7.40
2018-12-05T21:08:37.307Z,6.33
2018-12-05T21:11:05.196Z,7.37
2018-12-05T21:13:33.081Z,6.03
2018-12-05T21:16:01.207Z,6.87
2018-12-05T21:18:29.082Z,6.30
2018-12-05T21:20:56.933Z,6.90
2018-12-05T21:23:24.944Z,6.50
2018-12-05T21:25:52.824Z,6.90
2018-12-05T21:28:20.782Z,6.97
2018-12-05T21:30:48.777Z,6.23
2018-12-05T21:33:16.615Z,6.63
2018-12-05T21:35:44.485Z,7.03
2018-12-05T21:38:12.308Z,7.93
2018-12-05T21:40:40.217Z,7.67
2018-12-05T21:43:08.097Z,6.53
2018-12-05T21:45:35.961Z,7.87
2018-12-05T21:48:03.853Z,7.67
2018-12-05T21:50:38.350Z,8.57
2018-12-05T21:53:06.276Z,7.90
2018-12-05T21:55:34.107Z,8.43
2018-12-05T21:58:02.015Z,8.10
2018-12-05T22:00:29.869Z,8.30
2018-12-05T22:02:57.801Z,7.93
2018-12-05T22:05:25.653Z,8.43
2018-12-05T22:07:53.546Z,8.30
2018-12-05T22:10:21.415Z,8.97
2018-12-05T22:12:49.403Z,7.83
2018-12-05T22:15:17.249Z,8.70
2018-12-05T22:17:45.100Z,8.47
2018-12-05T22:20:13.058Z,8.83
2018-12-05T22:22:40.900Z,8.43
2018-12-05T22:25:08.794Z,9.70
2018-12-05T22:27:36.729Z,9.53
2018-12-05T22:30:05.862Z,8.83
2018-12-05T22:32:33.772Z,9.10
2018-12-05T22:35:01.696Z,7.90
2018-12-05T22:37:29.582Z,7.57
2018-12-05T22:39:57.457Z,8.73
2018-12-05T22:42:25.307Z,8.10
2018-12-05T22:44:53.235Z,8.73
2018-12-05T22:47:21.043Z,8.73
2018-12-05T22:49:48.916Z,9.03
2018-12-05T22:52:16.770Z,9.47
2018-12-05T22:54:44.581Z,8.40
2018-12-05T22:57:14.190Z,9.57
2018-12-05T22:59:42.100Z,8.20
2018-12-05T23:02:10.132Z,9.47
2018-12-05T23:04:38.190Z,8.47
2018-12-05T23:07:06.226Z,8.03
2018-12-05T23:09:34.082Z,8.47
2018-12-05T23:12:01.943Z,8.13
2018-12-05T23:14:29.830Z,7.57
2018-12-05T23:16:57.920Z,9.13
2018-12-05T23:19:25.784Z,8.60
2018-12-05T23:21:53.807Z,9.03
2018-12-05T23:24:21.681Z,8.47
2018-12-05T23:26:49.505Z,7.67
2018-12-05T23:29:17.336Z,8.57
2018-12-05T23:31:45.163Z,9.00
2018-12-05T23:34:13.056Z,8.53
2018-12-05T23:36:40.919Z,9.23
2018-12-05T23:39:08.818Z,8.47
2018-12-05T23:41:36.687Z,9.80
2018-12-05T23:44:04.581Z,9.00
2018-12-05T23:46:32.561Z,9.27
2018-12-05T23:49:00.431Z,9.83
2018-12-05T23:51:28.223Z,9.67
2018-12-05T23:53:56.090Z,9.27
2018-12-05T23:56:23.989Z,11.07
2018-12-05T23:58:51.811Z,9.73
